createdAt,value
2022-07-30T00:00:37.914Z,3.95
2022-07-30T00:01:39.650Z,4.25
2022-07-30T00:02:42.250Z,4.10
2022-07-30T00:03:44.056Z,4.20
2022-07-30T00:04:46.986Z,4.55
2022-07-30T00:05:48.996Z,4.38
2022-07-30T00:06:51.602Z,4.22
2022-07-30T00:07:55.519Z,5.13
2022-07-30T00:08:57.424Z,4.45
2022-07-30T00:10:00.008Z,4.25
2022-07-30T00:11:01.723Z,4.18
2022-07-30T00:12:05.146Z,4.13
2022-07-30T00:13:06.801Z,3.88
2022-07-30T00:14:09.930Z,4.38
2022-07-30T00:15:12.027Z,4.18
2022-07-30T00:16:14.614Z,5.05
2022-07-30T00:17:16.282Z,3.65
2022-07-30T00:18:20.016Z,4.53
2022-07-30T00:19:24.018Z,4.50
2022-07-30T00:20:27.940Z,4.30
2022-07-30T00:21:36.212Z,4.30
2022-07-30T00:22:41.586Z,4.13
2022-07-30T00:24:01.126Z,3.90
2022-07-30T00:25:05.025Z,4.28
2022-07-30T00:26:06.570Z,4.40
2022-07-30T00:27:10.113Z,4.25
2022-07-30T00:28:11.906Z,4.40
2022-07-30T00:29:14.475Z,4.53
2022-07-30T00:30:17.247Z,4.57
2022-07-30T00:31:18.868Z,4.65
2022-07-30T00:32:21.825Z,4.68
2022-07-30T00:33:23.450Z,4.78
2022-07-30T00:34:26.098Z,4.57
2022-07-30T00:35:27.814Z,4.70
2022-07-30T00:36:30.409Z,4.65
2022-07-30T00:37:32.040Z,4.38
2022-07-30T00:38:34.845Z,3.97
2022-07-30T00:39:37.799Z,4.47
2022-07-30T00:40:41.689Z,4.30
2022-07-30T00:41:59.747Z,4.18
2022-07-30T00:43:02.350Z,3.75
2022-07-30T00:44:04.338Z,4.72
2022-07-30T00:45:08.491Z,4.35
2022-07-30T00:46:11.387Z,4.18
2022-07-30T00:47:13.164Z,4.00
2022-07-30T00:48:16.036Z,4.53
2022-07-30T00:49:17.758Z,4.60
2022-07-30T00:50:20.397Z,4.18
2022-07-30T00:51:23.252Z,5.30
2022-07-30T00:52:25.795Z,5.47
2022-07-30T00:53:27.396Z,4.72
2022-07-30T00:54:30.037Z,5.10
2022-07-30T00:55:33.622Z,5.10
2022-07-30T00:56:36.183Z,5.00
2022-07-30T00:57:39.351Z,4.95
2022-07-30T00:58:42.028Z,4.85
2022-07-30T00:59:43.623Z,4.55
2022-07-30T01:00:46.329Z,4.80
2022-07-30T01:01:48.004Z,5.10
2022-07-30T01:02:50.954Z,5.22
2022-07-30T01:03:52.575Z,4.90
2022-07-30T01:04:55.419Z,4.93
2022-07-30T01:05:57.096Z,4.97
2022-07-30T01:06:59.803Z,5.20
2022-07-30T01:08:01.487Z,4.65
2022-07-30T01:09:04.084Z,5.25
2022-07-30T01:10:07.194Z,5.70
2022-07-30T01:11:11.457Z,4.78
2022-07-30T01:12:14.634Z,4.95
2022-07-30T01:13:17.420Z,5.13
2022-07-30T01:14:20.423Z,4.43
2022-07-30T01:15:22.321Z,4.82
2022-07-30T01:16:26.094Z,4.30
2022-07-30T01:17:27.773Z,4.88
2022-07-30T01:19:00.126Z,4.65
2022-07-30T01:20:05.508Z,4.70
2022-07-30T01:21:09.854Z,6.07
2022-07-30T01:22:18.879Z,4.65
2022-07-30T01:23:25.934Z,5.55
2022-07-30T01:24:30.942Z,4.90
2022-07-30T01:25:57.154Z,4.32
2022-07-30T01:26:59.288Z,4.78
2022-07-30T01:28:04.698Z,4.35
2022-07-30T01:29:06.538Z,4.70
2022-07-30T01:30:11.426Z,5.10
2022-07-30T01:31:14.381Z,4.90
2022-07-30T01:32:17.708Z,5.85
2022-07-30T01:33:20.772Z,4.50
2022-07-30T01:34:25.074Z,4.95
2022-07-30T01:35:28.549Z,4.50
2022-07-30T01:36:31.500Z,4.80
2022-07-30T01:37:33.841Z,4.82
2022-07-30T01:38:37.654Z,4.18
2022-07-30T01:39:39.745Z,4.57
2022-07-30T01:40:44.318Z,5.43
2022-07-30T01:41:49.047Z,5.05
2022-07-30T01:42:54.784Z,5.22
2022-07-30T01:43:56.865Z,5.07
2022-07-30T01:45:00.374Z,5.35
2022-07-30T01:46:02.819Z,6.03
2022-07-30T01:47:06.089Z,6.15
2022-07-30T01:48:09.201Z,5.80
2022-07-30T01:49:12.929Z,6.93
2022-07-30T01:50:15.965Z,5.57
2022-07-30T01:51:19.329Z,5.35
2022-07-30T01:52:22.318Z,6.22
2022-07-30T01:53:25.923Z,5.32
2022-07-30T01:54:29.163Z,6.05
2022-07-30T01:55:32.654Z,5.68
2022-07-30T01:56:36.985Z,6.38
2022-07-30T01:57:41.986Z,7.18
2022-07-30T01:58:47.754Z,5.88
2022-07-30T01:59:52.685Z,5.70
2022-07-30T02:00:55.523Z,5.13
2022-07-30T02:01:58.115Z,6.10
2022-07-30T02:02:59.708Z,5.55
2022-07-30T02:04:03.614Z,6.50
2022-07-30T02:05:06.814Z,6.00
2022-07-30T02:06:12.033Z,6.22
2022-07-30T02:07:17.944Z,6.07
2022-07-30T02:08:28.065Z,5.55
2022-07-30T02:09:36.923Z,6.13
2022-07-30T02:10:42.781Z,6.25
2022-07-30T02:12:04.584Z,6.28
2022-07-30T02:13:08.954Z,5.63
2022-07-30T02:14:15.397Z,6.70
2022-07-30T02:15:24.317Z,6.53
2022-07-30T02:16:28.604Z,6.97
2022-07-30T02:17:44.307Z,6.07
2022-07-30T02:18:57.017Z,5.75
2022-07-30T02:20:00.770Z,5.72
2022-07-30T02:21:07.616Z,6.18
2022-07-30T02:22:15.306Z,6.10
2022-07-30T02:23:19.406Z,5.85
2022-07-30T02:24:24.710Z,6.22
2022-07-30T02:25:27.871Z,6.68
2022-07-30T02:26:29.890Z,6.55
2022-07-30T02:27:34.828Z,6.32
2022-07-30T02:28:45.264Z,6.10
2022-07-30T02:29:47.887Z,5.82
2022-07-30T02:30:52.675Z,5.93
2022-07-30T02:31:54.974Z,6.07
2022-07-30T02:33:03.327Z,5.65
2022-07-30T02:34:06.569Z,6.05
2022-07-30T02:35:13.503Z,6.03
2022-07-30T02:36:15.561Z,6.93
2022-07-30T02:37:43.072Z,6.22
2022-07-30T02:38:45.898Z,6.75
2022-07-30T02:39:48.271Z,6.00
2022-07-30T02:40:51.340Z,5.85
2022-07-30T02:41:54.734Z,6.25
2022-07-30T02:42:57.889Z,6.45
2022-07-30T02:44:02.130Z,6.18
2022-07-30T02:45:06.029Z,6.65
2022-07-30T02:46:08.005Z,5.97
2022-07-30T02:47:11.186Z,6.57
2022-07-30T02:48:32.976Z,6.70
2022-07-30T02:49:38.050Z,6.47
2022-07-30T02:50:40.156Z,6.60
2022-07-30T02:51:43.204Z,6.20
2022-07-30T02:52:44.996Z,6.53
2022-07-30T02:53:51.390Z,6.03
2022-07-30T02:54:56.464Z,6.22
2022-07-30T02:56:00.459Z,6.80
2022-07-30T02:57:03.063Z,6.70
2022-07-30T02:58:07.310Z,5.97
2022-07-30T02:59:11.283Z,6.32
2022-07-30T03:00:14.776Z,6.25
2022-07-30T03:01:18.596Z,7.43
2022-07-30T03:02:28.960Z,6.82
2022-07-30T03:03:31.436Z,6.78
2022-07-30T03:04:34.257Z,6.18
2022-07-30T03:05:37.401Z,6.22
2022-07-30T03:06:39.541Z,6.15
2022-07-30T03:07:42.532Z,6.63
2022-07-30T03:08:44.740Z,6.93
2022-07-30T03:09:52.282Z,7.22
2022-07-30T03:10:55.937Z,6.85
2022-07-30T03:11:59.082Z,6.10
2022-07-30T03:13:01.416Z,5.53
2022-07-30T03:14:04.380Z,5.75
2022-07-30T03:15:08.752Z,6.72
2022-07-30T03:16:12.803Z,6.50
2022-07-30T03:17:15.748Z,6.40
2022-07-30T03:18:20.908Z,6.63
2022-07-30T03:19:23.958Z,6.07
2022-07-30T03:20:29.055Z,6.40
2022-07-30T03:21:34.072Z,7.28
2022-07-30T03:22:41.641Z,6.82
2022-07-30T03:23:44.412Z,6.22
2022-07-30T03:24:48.403Z,7.57
2022-07-30T03:26:01.743Z,6.95
2022-07-30T03:27:04.834Z,6.68
2022-07-30T03:28:07.774Z,6.97
2022-07-30T03:29:11.029Z,5.68
2022-07-30T03:30:14.311Z,6.95
2022-07-30T03:31:17.389Z,6.53
2022-07-30T03:32:20.150Z,6.70
2022-07-30T03:33:33.563Z,6.63
2022-07-30T03:34:42.173Z,6.38
2022-07-30T03:35:47.152Z,7.28
2022-07-30T03:36:50.425Z,7.28
2022-07-30T03:37:52.709Z,7.18
2022-07-30T03:38:55.614Z,7.57
2022-07-30T03:39:58.101Z,7.38
2022-07-30T03:41:00.872Z,8.27
2022-07-30T03:42:03.461Z,7.50
2022-07-30T03:43:06.137Z,7.50
2022-07-30T03:44:28.042Z,6.95
2022-07-30T03:45:32.166Z,6.50
2022-07-30T03:46:35.443Z,7.03
2022-07-30T03:47:40.337Z,7.22
2022-07-30T03:48:42.254Z,7.38
2022-07-30T03:49:44.950Z,6.68
2022-07-30T03:50:46.787Z,7.28
2022-07-30T03:51:50.036Z,7.80
2022-07-30T03:52:51.770Z,7.80
2022-07-30T03:53:54.522Z,6.53
2022-07-30T03:54:56.357Z,6.60
2022-07-30T03:55:59.195Z,7.18
2022-07-30T03:57:01.254Z,7.57
2022-07-30T03:58:04.967Z,7.15
2022-07-30T03:59:06.678Z,7.00
2022-07-30T04:00:14.668Z,8.00
2022-07-30T04:01:17.969Z,6.80
2022-07-30T04:02:20.623Z,7.00
2022-07-30T04:03:25.749Z,6.47
2022-07-30T04:04:28.654Z,6.97
2022-07-30T04:05:37.679Z,6.85
2022-07-30T04:06:44.444Z,7.43
2022-07-30T04:07:49.527Z,6.88
2022-07-30T04:08:52.145Z,6.78
2022-07-30T04:09:53.752Z,8.00
2022-07-30T04:10:56.728Z,7.30
2022-07-30T04:11:58.578Z,6.90
2022-07-30T04:13:01.234Z,7.93
2022-07-30T04:14:03.229Z,6.72
2022-07-30T04:16:04.958Z,6.75
2022-07-30T04:16:39.475Z,6.43
2022-07-30T04:17:47.589Z,7.20
2022-07-30T04:18:52.014Z,7.18
2022-07-30T04:19:59.146Z,6.60
2022-07-30T04:21:03.037Z,7.22
2022-07-30T04:22:06.675Z,6.78
2022-07-30T04:23:09.549Z,6.53
2022-07-30T04:24:13.026Z,6.30
2022-07-30T04:25:22.949Z,6.78
2022-07-30T04:26:27.376Z,7.13
2022-07-30T04:27:29.504Z,6.97
2022-07-30T04:28:32.789Z,7.32
2022-07-30T04:29:35.794Z,6.68
2022-07-30T04:30:37.879Z,6.10
2022-07-30T04:31:41.979Z,6.75
2022-07-30T04:32:44.420Z,7.07
2022-07-30T04:33:47.185Z,7.22
2022-07-30T04:34:49.824Z,7.20
2022-07-30T04:35:52.588Z,7.38
2022-07-30T04:36:54.280Z,7.43
2022-07-30T04:37:56.883Z,7.50
2022-07-30T04:38:58.963Z,7.63
2022-07-30T04:40:01.769Z,7.43
2022-07-30T04:41:03.586Z,6.95
2022-07-30T04:42:06.264Z,7.43
2022-07-30T04:43:07.948Z,7.00
2022-07-30T04:44:10.963Z,6.90
2022-07-30T04:45:13.911Z,6.95
2022-07-30T04:46:16.847Z,8.00
2022-07-30T04:47:20.374Z,7.03
2022-07-30T04:48:22.986Z,7.38
2022-07-30T04:49:24.700Z,6.55
2022-07-30T04:50:29.184Z,7.47
2022-07-30T04:51:33.534Z,6.80
2022-07-30T04:52:37.005Z,7.05
2022-07-30T04:53:38.781Z,6.80
2022-07-30T04:54:44.848Z,6.75
2022-07-30T04:55:48.929Z,5.80
2022-07-30T04:57:01.104Z,5.97
2022-07-30T04:58:02.868Z,6.40
2022-07-30T04:59:05.874Z,5.90
2022-07-30T05:00:09.034Z,6.13
2022-07-30T05:01:12.897Z,6.35
2022-07-30T05:02:16.013Z,6.25
2022-07-30T05:03:20.363Z,5.90
2022-07-30T05:04:23.745Z,6.05
2022-07-30T05:05:28.022Z,6.80
2022-07-30T05:06:32.077Z,5.93
2022-07-30T05:07:33.944Z,6.93
2022-07-30T05:08:36.686Z,6.00
2022-07-30T05:09:38.363Z,6.15
2022-07-30T05:10:45.702Z,6.55
2022-07-30T05:11:51.221Z,5.65
2022-07-30T05:12:53.818Z,5.90
2022-07-30T05:13:55.661Z,6.03
2022-07-30T05:14:58.270Z,6.63
2022-07-30T05:15:59.967Z,5.53
2022-07-30T05:17:03.283Z,6.07
2022-07-30T05:18:05.448Z,5.25
2022-07-30T05:19:09.518Z,5.63
2022-07-30T05:20:12.331Z,6.32
2022-07-30T05:21:14.958Z,6.38
2022-07-30T05:22:16.521Z,6.35
2022-07-30T05:23:19.114Z,7.32
2022-07-30T05:24:20.732Z,6.10
2022-07-30T05:25:23.354Z,6.15
2022-07-30T05:26:27.934Z,7.22
2022-07-30T05:27:30.717Z,7.60
2022-07-30T05:28:32.276Z,6.85
2022-07-30T05:29:34.976Z,7.00
2022-07-30T05:30:37.450Z,6.47
2022-07-30T05:31:44.446Z,6.72
2022-07-30T05:32:46.801Z,6.65
2022-07-30T05:33:49.652Z,7.57
2022-07-30T05:34:52.600Z,6.72
2022-07-30T05:35:55.157Z,6.40
2022-07-30T05:36:56.738Z,6.50
2022-07-30T05:38:00.123Z,6.50
2022-07-30T05:39:02.075Z,6.53
2022-07-30T05:40:05.337Z,6.63
2022-07-30T05:41:30.585Z,6.68
2022-07-30T05:42:29.457Z,6.80
2022-07-30T05:43:31.083Z,7.07
2022-07-30T05:44:33.627Z,6.68
2022-07-30T05:45:35.268Z,6.45
2022-07-30T05:46:37.917Z,7.05
2022-07-30T05:47:39.557Z,6.53
2022-07-30T05:48:42.170Z,6.60
2022-07-30T05:49:44.802Z,6.88
2022-07-30T05:50:50.438Z,6.40
2022-07-30T05:51:53.270Z,6.57
2022-07-30T05:52:56.074Z,5.93
2022-07-30T05:53:58.662Z,7.20
2022-07-30T05:55:00.333Z,6.15
2022-07-30T05:56:02.879Z,6.68
2022-07-30T05:57:04.607Z,6.15
2022-07-30T05:58:07.245Z,6.53
2022-07-30T05:59:08.818Z,6.60
2022-07-30T06:00:12.974Z,6.53
2022-07-30T06:01:14.591Z,6.18
2022-07-30T06:02:17.342Z,6.47
2022-07-30T06:03:18.962Z,5.82
2022-07-30T06:04:21.588Z,6.38
2022-07-30T06:05:23.284Z,5.53
2022-07-30T06:06:27.168Z,6.60
2022-07-30T06:07:29.417Z,5.88
2022-07-30T06:08:31.989Z,6.03
2022-07-30T06:09:36.784Z,5.72
2022-07-30T06:10:40.007Z,6.15
2022-07-30T06:11:41.541Z,6.18
2022-07-30T06:12:44.373Z,5.82
2022-07-30T06:13:45.942Z,6.30
2022-07-30T06:14:48.482Z,6.45
2022-07-30T06:15:50.339Z,6.32
2022-07-30T06:16:52.940Z,6.18
2022-07-30T06:17:58.291Z,6.57
2022-07-30T06:19:04.726Z,6.88
2022-07-30T06:20:07.224Z,6.57
2022-07-30T06:21:10.179Z,6.22
2022-07-30T06:22:13.273Z,6.55
2022-07-30T06:23:15.926Z,6.50
2022-07-30T06:24:17.516Z,6.82
2022-07-30T06:25:20.073Z,6.00
2022-07-30T06:26:21.718Z,7.20
2022-07-30T06:27:25.938Z,6.68
2022-07-30T06:28:37.575Z,6.60
2022-07-30T06:29:41.288Z,5.97
2022-07-30T06:30:45.759Z,6.43
2022-07-30T06:31:48.384Z,5.90
2022-07-30T06:32:50.019Z,6.05
2022-07-30T06:33:52.595Z,6.43
2022-07-30T06:35:02.476Z,5.90
2022-07-30T06:36:07.627Z,6.68
2022-07-30T06:37:09.311Z,6.05
2022-07-30T06:38:13.304Z,6.00
2022-07-30T06:39:14.964Z,6.35
2022-07-30T06:40:37.563Z,3.80
2022-07-30T06:41:39.147Z,5.50
2022-07-30T06:42:41.704Z,3.80
2022-07-30T06:43:43.310Z,5.32
2022-07-30T06:44:45.912Z,3.95
2022-07-30T06:45:47.758Z,5.65
2022-07-30T06:46:50.323Z,5.60
2022-07-30T06:47:51.959Z,3.13
2022-07-30T06:48:55.004Z,5.47
2022-07-30T06:49:56.777Z,5.85
2022-07-30T06:50:59.431Z,6.13
2022-07-30T06:52:01.348Z,4.68
2022-07-30T06:53:04.104Z,5.68
2022-07-30T06:54:07.097Z,5.68
2022-07-30T06:55:10.410Z,5.97
2022-07-30T06:56:12.438Z,5.95
2022-07-30T06:57:15.162Z,6.10
2022-07-30T06:58:16.905Z,6.35
2022-07-30T06:59:28.455Z,6.75
2022-07-30T07:00:30.286Z,5.50
2022-07-30T07:01:33.039Z,6.68
2022-07-30T07:02:34.794Z,6.22
2022-07-30T07:03:39.867Z,5.63
2022-07-30T07:04:42.240Z,5.80
2022-07-30T07:05:44.940Z,6.65
2022-07-30T07:06:46.575Z,6.18
2022-07-30T07:07:58.633Z,6.30
2022-07-30T07:09:02.303Z,4.65
2022-07-30T07:10:06.646Z,5.75
2022-07-30T07:11:09.246Z,5.53
2022-07-30T07:12:11.371Z,6.32
2022-07-30T07:13:13.978Z,6.93
2022-07-30T07:14:15.785Z,6.25
2022-07-30T07:15:18.383Z,5.75
2022-07-30T07:16:21.687Z,6.97
2022-07-30T07:17:24.428Z,6.50
2022-07-30T07:18:26.445Z,6.43
2022-07-30T07:20:00.045Z,6.25
2022-07-30T07:20:51.093Z,6.75
2022-07-30T07:21:53.771Z,6.18
2022-07-30T07:22:55.350Z,6.82
2022-07-30T07:24:02.736Z,6.53
2022-07-30T07:25:06.668Z,5.60
2022-07-30T07:26:09.266Z,6.22
2022-07-30T07:27:11.575Z,6.38
2022-07-30T07:28:18.169Z,5.90
2022-07-30T07:29:19.745Z,6.80
2022-07-30T07:30:22.314Z,6.22
2022-07-30T07:32:06.001Z,5.75
2022-07-30T07:32:46.850Z,6.25
2022-07-30T07:33:49.580Z,6.65
2022-07-30T07:34:51.162Z,5.78
2022-07-30T07:35:55.155Z,4.05
2022-07-30T07:36:57.898Z,6.00
2022-07-30T07:37:59.661Z,5.38
2022-07-30T07:39:02.288Z,5.78
2022-07-30T07:40:06.699Z,6.00
2022-07-30T07:41:09.272Z,6.00
2022-07-30T07:42:11.024Z,6.72
2022-07-30T07:43:14.533Z,6.25
2022-07-30T07:44:16.155Z,5.35
2022-07-30T07:45:18.955Z,6.07
2022-07-30T07:46:33.627Z,4.47
2022-07-30T07:47:44.247Z,3.75
2022-07-30T07:48:54.741Z,3.10
2022-07-30T07:49:57.361Z,3.30
2022-07-30T07:51:00.603Z,3.33
2022-07-30T07:52:03.379Z,3.50
2022-07-30T07:53:05.436Z,3.10
2022-07-30T07:54:20.919Z,3.35
2022-07-30T07:55:24.971Z,3.58
2022-07-30T07:56:28.043Z,3.35
2022-07-30T07:57:29.602Z,3.28
2022-07-30T07:58:32.750Z,3.45
2022-07-30T07:59:39.688Z,6.13
2022-07-30T08:00:43.578Z,4.75
2022-07-30T08:01:46.581Z,3.92
2022-07-30T08:02:50.220Z,5.50
2022-07-30T08:03:51.850Z,5.05
2022-07-30T08:04:54.385Z,5.28
2022-07-30T08:06:05.494Z,3.67
2022-07-30T08:07:08.077Z,2.92
2022-07-30T08:08:10.817Z,3.97
2022-07-30T08:09:12.598Z,3.20
2022-07-30T08:10:16.084Z,3.70
2022-07-30T08:11:20.053Z,6.35
2022-07-30T08:12:21.865Z,5.72
2022-07-30T08:13:49.061Z,3.97
2022-07-30T08:14:47.010Z,3.75
2022-07-30T08:15:48.630Z,3.90
2022-07-30T08:16:51.250Z,4.22
2022-07-30T08:17:52.918Z,4.95
2022-07-30T08:18:55.618Z,5.25
2022-07-30T08:19:59.160Z,3.40
2022-07-30T08:21:01.725Z,3.35
2022-07-30T08:22:03.372Z,4.03
2022-07-30T08:23:06.149Z,5.70
2022-07-30T08:24:08.427Z,5.10
2022-07-30T08:25:11.519Z,4.50
2022-07-30T08:26:25.305Z,3.22
2022-07-30T08:27:28.877Z,3.75
2022-07-30T08:28:35.884Z,4.03
2022-07-30T08:29:38.930Z,3.38
2022-07-30T08:30:40.603Z,3.20
2022-07-30T08:31:43.226Z,3.97
2022-07-30T08:32:44.846Z,3.92
2022-07-30T08:33:47.414Z,3.70
2022-07-30T08:34:49.556Z,3.88
2022-07-30T08:35:55.570Z,3.20
2022-07-30T08:37:00.860Z,3.70
2022-07-30T08:38:03.444Z,5.10
2022-07-30T08:39:05.127Z,5.82
2022-07-30T08:40:08.747Z,6.55
2022-07-30T08:41:10.610Z,5.65
2022-07-30T08:42:16.762Z,5.95
2022-07-30T08:43:18.898Z,4.47
2022-07-30T08:44:21.820Z,4.10
2022-07-30T08:45:34.598Z,4.20
2022-07-30T08:46:42.474Z,5.18
2022-07-30T08:47:50.058Z,5.32
2022-07-30T08:48:53.115Z,3.75
2022-07-30T08:49:55.758Z,3.53
2022-07-30T08:50:59.460Z,3.45
2022-07-30T08:52:01.492Z,4.00
2022-07-30T08:53:04.708Z,3.47
2022-07-30T08:54:06.698Z,5.72
2022-07-30T08:55:10.362Z,3.65
2022-07-30T08:56:12.642Z,3.67
2022-07-30T08:57:16.954Z,3.35
2022-07-30T08:58:30.339Z,3.63
2022-07-30T09:00:00.801Z,4.05
2022-07-30T09:02:05.790Z,3.30
2022-07-30T09:03:11.850Z,4.80
2022-07-30T09:04:15.255Z,5.90
2022-07-30T09:05:17.868Z,4.00
2022-07-30T09:06:19.642Z,6.00
2022-07-30T09:07:22.276Z,3.92
2022-07-30T09:08:23.907Z,5.78
2022-07-30T09:09:26.687Z,5.88
2022-07-30T09:10:30.112Z,4.70
2022-07-30T09:11:35.022Z,4.53
2022-07-30T09:12:39.869Z,6.13
2022-07-30T09:13:44.373Z,5.53
2022-07-30T09:15:01.401Z,5.97
2022-07-30T09:16:05.239Z,5.55
2022-07-30T09:17:06.817Z,4.43
2022-07-30T09:18:09.621Z,3.92
2022-07-30T09:19:14.306Z,4.35
2022-07-30T09:20:17.384Z,4.40
2022-07-30T09:21:23.443Z,5.25
2022-07-30T09:22:42.752Z,6.60
2022-07-30T09:23:59.329Z,3.65
2022-07-30T09:25:00.894Z,4.80
2022-07-30T09:26:03.491Z,4.88
2022-07-30T09:27:05.686Z,5.75
2022-07-30T09:28:15.870Z,4.15
2022-07-30T09:29:19.981Z,3.30
2022-07-30T09:30:22.726Z,3.70
2022-07-30T09:31:25.400Z,4.05
2022-07-30T09:32:27.719Z,5.55
2022-07-30T09:33:36.128Z,3.95
2022-07-30T09:34:40.024Z,4.50
2022-07-30T09:35:43.271Z,4.03
2022-07-30T09:36:45.867Z,4.15
2022-07-30T09:37:47.770Z,6.97
2022-07-30T09:38:51.877Z,6.32
2022-07-30T09:39:58.987Z,4.47
2022-07-30T09:41:12.284Z,4.38
2022-07-30T09:42:20.210Z,5.03
2022-07-30T09:43:27.643Z,5.55
2022-07-30T09:44:30.329Z,3.80
2022-07-30T09:45:34.726Z,4.85
2022-07-30T09:46:45.301Z,4.55
2022-07-30T09:47:48.360Z,4.47
2022-07-30T09:48:51.011Z,4.20
2022-07-30T09:50:07.376Z,4.55
2022-07-30T09:51:15.732Z,4.70
2022-07-30T09:52:29.062Z,4.50
2022-07-30T09:53:32.550Z,4.05
2022-07-30T09:54:53.219Z,6.35
2022-07-30T09:55:56.284Z,4.25
2022-07-30T09:57:06.246Z,4.30
2022-07-30T09:58:38.956Z,4.68
2022-07-30T09:59:40.541Z,5.45
2022-07-30T10:00:45.056Z,4.20
2022-07-30T10:02:01.158Z,4.03
2022-07-30T10:03:33.031Z,5.30
2022-07-30T10:04:37.125Z,4.07
2022-07-30T10:05:51.303Z,4.45
2022-07-30T10:06:54.935Z,5.20
2022-07-30T10:07:59.717Z,5.68
2022-07-30T10:09:01.449Z,4.75
2022-07-30T10:10:17.476Z,5.60
2022-07-30T10:11:23.561Z,6.45
2022-07-30T10:12:26.627Z,4.53
2022-07-30T10:13:32.445Z,5.05
2022-07-30T10:14:42.378Z,5.38
2022-07-30T10:15:45.021Z,5.13
2022-07-30T10:16:47.892Z,4.70
2022-07-30T10:17:49.806Z,5.20
2022-07-30T10:18:53.066Z,7.05
2022-07-30T10:19:54.875Z,5.43
2022-07-30T10:20:57.561Z,4.35
2022-07-30T10:22:01.401Z,4.47
2022-07-30T10:23:08.895Z,3.72
2022-07-30T10:24:32.337Z,3.97
2022-07-30T10:25:35.209Z,4.07
2022-07-30T10:26:39.132Z,4.88
2022-07-30T10:27:41.166Z,4.50
2022-07-30T10:28:45.972Z,5.15
2022-07-30T10:29:48.004Z,5.38
2022-07-30T10:30:51.579Z,6.60
2022-07-30T10:31:54.524Z,4.20
2022-07-30T10:32:58.478Z,4.13
2022-07-30T10:34:02.786Z,3.83
2022-07-30T10:35:06.469Z,4.50
2022-07-30T10:36:12.281Z,5.10
2022-07-30T10:37:16.712Z,5.00
2022-07-30T10:38:25.097Z,5.65
2022-07-30T10:39:34.568Z,5.40
2022-07-30T10:40:41.661Z,4.82
2022-07-30T10:41:54.006Z,5.40
2022-07-30T10:43:23.193Z,3.83
2022-07-30T10:44:54.749Z,4.38
2022-07-30T10:46:00.581Z,3.65
2022-07-30T10:47:09.254Z,3.67
2022-07-30T10:48:12.678Z,4.95
2022-07-30T10:49:19.652Z,3.63
2022-07-30T10:50:26.794Z,3.83
2022-07-30T10:51:43.972Z,4.32
2022-07-30T10:52:54.100Z,4.20
2022-07-30T10:53:55.726Z,4.40
2022-07-30T10:54:58.823Z,3.58
2022-07-30T10:56:14.746Z,4.30
2022-07-30T10:57:31.788Z,4.13
2022-07-30T10:58:57.813Z,4.22
2022-07-30T11:00:17.680Z,4.18
2022-07-30T11:01:19.531Z,4.35
2022-07-30T11:02:26.108Z,4.20
2022-07-30T11:03:41.144Z,3.95
2022-07-30T11:04:47.825Z,4.70
2022-07-30T11:05:52.237Z,3.80
2022-07-30T11:07:30.036Z,3.75
2022-07-30T11:08:37.890Z,3.40
2022-07-30T11:09:44.649Z,3.55
2022-07-30T11:11:19.812Z,3.95
2022-07-30T11:12:56.485Z,4.32
2022-07-30T11:13:59.579Z,3.75
2022-07-30T11:15:06.902Z,3.80
2022-07-30T11:16:24.379Z,3.53
2022-07-30T11:17:26.575Z,3.67
2022-07-30T11:18:29.205Z,3.30
2022-07-30T11:19:56.032Z,3.40
2022-07-30T11:21:16.063Z,3.65
2022-07-30T11:22:26.152Z,4.10
2022-07-30T11:23:40.807Z,3.45
2022-07-30T11:24:43.468Z,3.42
2022-07-30T11:25:52.039Z,3.25
2022-07-30T11:26:57.390Z,3.45
2022-07-30T11:28:00.731Z,3.85
2022-07-30T11:29:04.779Z,3.22
2022-07-30T11:30:34.127Z,3.63
2022-07-30T11:31:56.901Z,3.30
2022-07-30T11:33:32.005Z,3.47
2022-07-30T11:34:35.657Z,3.15
2022-07-30T11:35:37.250Z,3.40
2022-07-30T11:37:19.226Z,3.60
2022-07-30T11:38:25.245Z,3.30
2022-07-30T11:40:07.421Z,3.47
2022-07-30T11:41:10.699Z,3.70
2022-07-30T11:42:25.491Z,3.75
2022-07-30T11:43:35.720Z,4.20
2022-07-30T11:44:38.178Z,3.20
2022-07-30T11:45:40.884Z,3.05
2022-07-30T11:46:48.926Z,3.03
2022-07-30T11:47:53.242Z,3.28
2022-07-30T11:48:57.314Z,3.45
2022-07-30T11:49:59.058Z,3.60
2022-07-30T11:51:03.994Z,3.60
2022-07-30T11:52:05.786Z,3.22
2022-07-30T11:53:09.917Z,3.10
2022-07-30T11:54:12.581Z,3.30
2022-07-30T11:55:23.229Z,3.33
2022-07-30T11:56:25.780Z,3.70
2022-07-30T11:57:39.827Z,3.67
2022-07-30T11:58:43.718Z,3.30
2022-07-30T11:59:54.694Z,3.42
2022-07-30T12:01:00.924Z,3.90
2022-07-30T12:02:04.314Z,3.60
2022-07-30T12:03:11.842Z,3.30
2022-07-30T12:04:14.487Z,3.20
2022-07-30T12:05:16.463Z,3.72
2022-07-30T12:06:19.927Z,3.08
2022-07-30T12:07:22.663Z,3.20
2022-07-30T12:08:35.216Z,3.10
2022-07-30T12:09:37.824Z,3.30
2022-07-30T12:10:58.247Z,2.97
2022-07-30T12:12:01.008Z,3.53
2022-07-30T12:13:11.543Z,3.90
2022-07-30T12:14:14.057Z,3.60
2022-07-30T12:15:30.788Z,3.55
2022-07-30T12:16:34.553Z,3.45
2022-07-30T12:17:44.778Z,3.30
2022-07-30T12:18:48.290Z,3.78
2022-07-30T12:19:49.998Z,3.55
2022-07-30T12:20:57.622Z,3.90
2022-07-30T12:22:02.059Z,4.15
2022-07-30T12:23:03.780Z,3.47
2022-07-30T12:24:10.060Z,3.53
2022-07-30T12:25:13.005Z,3.88
2022-07-30T12:26:24.455Z,4.05
2022-07-30T12:27:28.579Z,3.88
2022-07-30T12:28:32.979Z,3.38
2022-07-30T12:29:35.727Z,3.58
2022-07-30T12:30:39.782Z,4.03
2022-07-30T12:31:42.532Z,3.97
2022-07-30T12:32:46.187Z,3.67
2022-07-30T12:33:48.825Z,4.07
2022-07-30T12:34:54.702Z,3.63
2022-07-30T12:35:59.249Z,3.97
2022-07-30T12:37:07.539Z,3.42
2022-07-30T12:38:10.209Z,3.97
2022-07-30T12:39:20.023Z,4.10
2022-07-30T12:40:21.683Z,4.18
2022-07-30T12:41:24.725Z,3.35
2022-07-30T12:42:27.110Z,3.75
2022-07-30T12:43:47.186Z,3.30
2022-07-30T12:44:49.292Z,3.90
2022-07-30T12:45:59.300Z,3.67
2022-07-30T12:47:02.970Z,3.85
2022-07-30T12:48:10.373Z,4.13
2022-07-30T12:49:21.488Z,3.85
2022-07-30T12:50:25.902Z,3.80
2022-07-30T12:51:30.205Z,3.90
2022-07-30T12:52:34.657Z,3.85
2022-07-30T12:53:36.613Z,3.22
2022-07-30T12:54:39.191Z,3.65
2022-07-30T12:55:40.839Z,3.55
2022-07-30T12:56:57.204Z,3.67
2022-07-30T12:58:07.661Z,3.38
2022-07-30T12:59:24.072Z,3.15
2022-07-30T13:00:27.090Z,3.88
2022-07-30T13:01:42.546Z,3.53
2022-07-30T13:02:44.213Z,3.92
2022-07-30T13:03:48.136Z,3.92
2022-07-30T13:05:11.033Z,4.07
2022-07-30T13:06:16.639Z,3.90
2022-07-30T13:07:18.269Z,3.70
2022-07-30T13:08:21.158Z,3.63
2022-07-30T13:09:22.789Z,3.80
2022-07-30T13:10:30.446Z,3.70
2022-07-30T13:11:40.496Z,3.05
2022-07-30T13:12:43.085Z,3.83
2022-07-30T13:13:44.724Z,3.70
2022-07-30T13:14:47.366Z,3.80
2022-07-30T13:15:57.814Z,3.33
2022-07-30T13:17:01.097Z,3.60
2022-07-30T13:18:02.894Z,3.20
2022-07-30T13:19:07.775Z,3.28
2022-07-30T13:20:11.105Z,3.58
2022-07-30T13:21:13.863Z,4.07
2022-07-30T13:22:15.474Z,3.33
2022-07-30T13:23:18.078Z,3.75
2022-07-30T13:24:21.661Z,3.42
2022-07-30T13:25:23.302Z,3.30
2022-07-30T13:26:25.930Z,3.90
2022-07-30T13:27:27.519Z,3.40
2022-07-30T13:28:31.828Z,2.17
2022-07-30T13:29:33.429Z,3.53
2022-07-30T13:30:36.098Z,3.75
2022-07-30T13:31:42.504Z,4.03
2022-07-30T13:32:45.861Z,3.38
2022-07-30T13:33:47.481Z,2.85
2022-07-30T13:34:51.382Z,2.83
2022-07-30T13:35:53.243Z,2.30
2022-07-30T13:36:55.796Z,2.22
2022-07-30T13:37:57.367Z,2.30
2022-07-30T13:38:59.897Z,1.85
2022-07-30T13:40:01.504Z,2.70
2022-07-30T13:41:05.300Z,3.33
2022-07-30T13:42:07.131Z,2.38
2022-07-30T13:43:09.827Z,2.78
2022-07-30T13:44:11.691Z,2.75
2022-07-30T13:45:14.310Z,2.47
2022-07-30T13:46:16.845Z,2.15
2022-07-30T13:47:18.584Z,2.08
2022-07-30T13:48:21.465Z,3.10
2022-07-30T13:49:23.116Z,2.40
2022-07-30T13:50:27.223Z,3.53
2022-07-30T13:51:29.812Z,2.78
2022-07-30T13:52:31.391Z,3.25
2022-07-30T13:53:33.975Z,3.58
2022-07-30T13:54:35.528Z,3.40
2022-07-30T13:55:39.315Z,3.20
2022-07-30T13:56:41.132Z,2.63
2022-07-30T13:57:44.649Z,2.63
2022-07-30T13:58:46.936Z,3.45
2022-07-30T13:59:49.552Z,2.78
2022-07-30T14:00:51.550Z,2.15
2022-07-30T14:01:54.168Z,1.60
2022-07-30T14:02:55.814Z,2.08
2022-07-30T14:03:58.333Z,2.17
2022-07-30T14:05:00.156Z,3.45
2022-07-30T14:06:10.974Z,3.58
2022-07-30T14:07:13.951Z,3.50
2022-07-30T14:08:15.784Z,3.45
2022-07-30T14:09:18.360Z,2.63
2022-07-30T14:10:22.156Z,3.78
2022-07-30T14:11:25.262Z,2.45
2022-07-30T14:12:26.831Z,2.15
2022-07-30T14:13:30.155Z,2.78
2022-07-30T14:14:32.187Z,1.90
2022-07-30T14:15:34.815Z,2.80
2022-07-30T14:16:45.309Z,2.80
2022-07-30T14:17:56.389Z,2.83
2022-07-30T14:18:58.370Z,3.05
2022-07-30T14:20:00.975Z,3.40
2022-07-30T14:21:04.904Z,2.63
2022-07-30T14:22:06.470Z,2.67
2022-07-30T14:23:09.062Z,3.15
2022-07-30T14:24:12.161Z,2.50
2022-07-30T14:25:14.757Z,2.58
2022-07-30T14:26:16.376Z,2.20
2022-07-30T14:27:20.473Z,2.95
2022-07-30T14:28:22.066Z,2.28